sensor_id;sensor_type;location;lat;lon;timestamp;P1;durP1;ratioP1;P2;durP2;ratioP2
51238;SDS011;38154;47.548;18.828;2022-12-29T00:01:19;4.25;;;2.53;;
51238;SDS011;38154;47.548;18.828;2022-12-29T00:03:45;4.32;;;2.62;;
51238;SDS011;38154;47.548;18.828;2022-12-29T00:06:12;7.95;;;4.03;;
51238;SDS011;38154;47.548;18.828;2022-12-29T00:08:38;5.75;;;2.80;;
51238;SDS011;38154;47.548;18.828;2022-12-29T00:11:07;9.02;;;4.43;;
51238;SDS011;38154;47.548;18.828;2022-12-29T00:13:34;11.02;;;3.40;;
51238;SDS011;38154;47.548;18.828;2022-12-29T00:16:19;6.30;;;3.08;;
51238;SDS011;38154;47.548;18.828;2022-12-29T00:18:45;6.43;;;3.57;;
51238;SDS011;38154;47.548;18.828;2022-12-29T00:21:14;9.43;;;3.85;;
51238;SDS011;38154;47.548;18.828;2022-12-29T00:24:00;2.35;;;1.98;;
51238;SDS011;38154;47.548;18.828;2022-12-29T00:26:53;11.23;;;4.72;;
51238;SDS011;38154;47.548;18.828;2022-12-29T00:29:48;9.20;;;4.00;;
51238;SDS011;38154;47.548;18.828;2022-12-29T00:32:33;6.87;;;3.10;;
51238;SDS011;38154;47.548;18.828;2022-12-29T00:35:27;5.62;;;3.67;;
51238;SDS011;38154;47.548;18.828;2022-12-29T00:37:55;7.50;;;3.97;;
51238;SDS011;38154;47.548;18.828;2022-12-29T00:40:43;5.30;;;3.70;;
51238;SDS011;38154;47.548;18.828;2022-12-29T00:43:27;6.20;;;3.50;;
51238;SDS011;38154;47.548;18.828;2022-12-29T00:46:12;7.75;;;3.95;;
51238;SDS011;38154;47.548;18.828;2022-12-29T00:48:37;3.72;;;2.97;;
51238;SDS011;38154;47.548;18.828;2022-12-29T00:51:22;6.12;;;3.15;;
51238;SDS011;38154;47.548;18.828;2022-12-29T00:53:49;8.73;;;4.25;;
51238;SDS011;38154;47.548;18.828;2022-12-29T00:56:15;5.72;;;3.05;;
51238;SDS011;38154;47.548;18.828;2022-12-29T00:58:40;3.87;;;3.08;;
51238;SDS011;38154;47.548;18.828;2022-12-29T01:01:07;6.28;;;3.20;;
51238;SDS011;38154;47.548;18.828;2022-12-29T01:03:35;8.82;;;3.67;;
51238;SDS011;38154;47.548;18.828;2022-12-29T01:06:08;9.13;;;4.53;;
51238;SDS011;38154;47.548;18.828;2022-12-29T01:08:35;11.40;;;3.85;;
51238;SDS011;38154;47.548;18.828;2022-12-29T01:11:11;10.35;;;4.30;;
51238;SDS011;38154;47.548;18.828;2022-12-29T01:13:38;8.23;;;4.07;;
51238;SDS011;38154;47.548;18.828;2022-12-29T01:16:06;4.95;;;4.18;;
51238;SDS011;38154;47.548;18.828;2022-12-29T01:18:32;4.78;;;2.97;;
51238;SDS011;38154;47.548;18.828;2022-12-29T01:21:02;10.93;;;3.90;;
51238;SDS011;38154;47.548;18.828;2022-12-29T01:23:30;6.28;;;3.75;;
51238;SDS011;38154;47.548;18.828;2022-12-29T01:25:56;6.33;;;4.10;;
51238;SDS011;38154;47.548;18.828;2022-12-29T01:28:23;17.15;;;4.10;;
51238;SDS011;38154;47.548;18.828;2022-12-29T01:30:49;6.22;;;3.35;;
51238;SDS011;38154;47.548;18.828;2022-12-29T01:33:15;7.12;;;4.15;;
51238;SDS011;38154;47.548;18.828;2022-12-29T01:35:41;4.97;;;3.37;;
51238;SDS011;38154;47.548;18.828;2022-12-29T01:38:06;5.57;;;3.55;;
51238;SDS011;38154;47.548;18.828;2022-12-29T01:40:33;6.43;;;3.78;;
51238;SDS011;38154;47.548;18.828;2022-12-29T01:42:59;6.95;;;3.50;;
51238;SDS011;38154;47.548;18.828;2022-12-29T01:45:25;10.70;;;3.95;;
51238;SDS011;38154;47.548;18.828;2022-12-29T01:47:58;6.30;;;3.58;;
51238;SDS011;38154;47.548;18.828;2022-12-29T01:50:30;5.35;;;3.25;;
51238;SDS011;38154;47.548;18.828;2022-12-29T01:52:59;10.48;;;3.45;;
51238;SDS011;38154;47.548;18.828;2022-12-29T01:55:29;8.13;;;3.70;;
51238;SDS011;38154;47.548;18.828;2022-12-29T01:57:59;10.15;;;4.30;;
51238;SDS011;38154;47.548;18.828;2022-12-29T02:00:28;6.50;;;3.10;;
51238;SDS011;38154;47.548;18.828;2022-12-29T02:02:54;19.33;;;4.82;;
51238;SDS011;38154;47.548;18.828;2022-12-29T02:08:12;7.12;;;3.25;;
51238;SDS011;38154;47.548;18.828;2022-12-29T02:10:39;12.80;;;5.45;;
51238;SDS011;38154;47.548;18.828;2022-12-29T02:15:45;12.15;;;3.95;;
51238;SDS011;38154;47.548;18.828;2022-12-29T02:18:34;9.45;;;3.45;;
51238;SDS011;38154;47.548;18.828;2022-12-29T02:32:05;8.82;;;3.25;;
51238;SDS011;38154;47.548;18.828;2022-12-29T02:37:17;8.60;;;4.05;;
51238;SDS011;38154;47.548;18.828;2022-12-29T02:45:38;5.07;;;3.05;;
51238;SDS011;38154;47.548;18.828;2022-12-29T02:50:51;11.88;;;4.22;;
51238;SDS011;38154;47.548;18.828;2022-12-29T02:53:26;7.87;;;3.83;;
51238;SDS011;38154;47.548;18.828;2022-12-29T02:56:13;7.35;;;4.35;;
51238;SDS011;38154;47.548;18.828;2022-12-29T02:58:38;4.28;;;3.10;;
51238;SDS011;38154;47.548;18.828;2022-12-29T03:12:23;9.00;;;4.20;;
51238;SDS011;38154;47.548;18.828;2022-12-29T03:15:18;9.32;;;4.00;;
51238;SDS011;38154;47.548;18.828;2022-12-29T03:21:33;10.13;;;4.37;;
51238;SDS011;38154;47.548;18.828;2022-12-29T03:24:16;4.00;;;2.95;;
51238;SDS011;38154;47.548;18.828;2022-12-29T03:26:45;8.73;;;3.97;;
51238;SDS011;38154;47.548;18.828;2022-12-29T03:29:13;11.68;;;4.40;;
51238;SDS011;38154;47.548;18.828;2022-12-29T03:31:42;11.65;;;4.45;;
51238;SDS011;38154;47.548;18.828;2022-12-29T03:34:08;4.15;;;2.87;;
51238;SDS011;38154;47.548;18.828;2022-12-29T03:36:43;6.72;;;3.55;;
51238;SDS011;38154;47.548;18.828;2022-12-29T03:39:16;5.93;;;4.40;;
51238;SDS011;38154;47.548;18.828;2022-12-29T03:41:44;8.43;;;4.12;;
51238;SDS011;38154;47.548;18.828;2022-12-29T03:46:38;7.50;;;4.55;;
51238;SDS011;38154;47.548;18.828;2022-12-29T03:49:03;6.28;;;3.30;;
51238;SDS011;38154;47.548;18.828;2022-12-29T03:51:29;4.37;;;3.20;;
51238;SDS011;38154;47.548;18.828;2022-12-29T03:53:55;6.22;;;2.72;;
51238;SDS011;38154;47.548;18.828;2022-12-29T03:56:21;6.30;;;4.57;;
51238;SDS011;38154;47.548;18.828;2022-12-29T03:58:47;26.20;;;4.15;;
51238;SDS011;38154;47.548;18.828;2022-12-29T04:01:13;7.65;;;3.90;;
51238;SDS011;38154;47.548;18.828;2022-12-29T04:03:39;5.93;;;3.87;;
51238;SDS011;38154;47.548;18.828;2022-12-29T04:06:05;11.00;;;5.55;;
51238;SDS011;38154;47.548;18.828;2022-12-29T04:08:31;8.40;;;4.23;;
51238;SDS011;38154;47.548;18.828;2022-12-29T04:10:56;12.57;;;4.57;;
51238;SDS011;38154;47.548;18.828;2022-12-29T04:13:22;14.55;;;4.28;;
51238;SDS011;38154;47.548;18.828;2022-12-29T04:15:48;8.55;;;4.32;;
51238;SDS011;38154;47.548;18.828;2022-12-29T04:18:14;9.73;;;4.57;;
51238;SDS011;38154;47.548;18.828;2022-12-29T04:20:41;8.00;;;4.60;;
51238;SDS011;38154;47.548;18.828;2022-12-29T04:23:29;3.60;;;2.95;;
51238;SDS011;38154;47.548;18.828;2022-12-29T04:25:57;11.23;;;5.25;;
51238;SDS011;38154;47.548;18.828;2022-12-29T04:28:23;11.35;;;5.78;;
51238;SDS011;38154;47.548;18.828;2022-12-29T04:30:49;8.37;;;4.27;;
51238;SDS011;38154;47.548;18.828;2022-12-29T04:33:15;5.53;;;4.00;;
51238;SDS011;38154;47.548;18.828;2022-12-29T04:35:42;9.98;;;5.28;;
51238;SDS011;38154;47.548;18.828;2022-12-29T04:38:08;8.05;;;3.53;;
51238;SDS011;38154;47.548;18.828;2022-12-29T04:40:35;6.47;;;2.72;;
51238;SDS011;38154;47.548;18.828;2022-12-29T04:43:03;5.60;;;3.55;;
51238;SDS011;38154;47.548;18.828;2022-12-29T04:45:28;9.25;;;4.30;;
51238;SDS011;38154;47.548;18.828;2022-12-29T04:47:54;9.30;;;4.03;;
51238;SDS011;38154;47.548;18.828;2022-12-29T04:50:20;9.23;;;5.12;;
51238;SDS011;38154;47.548;18.828;2022-12-29T04:52:46;12.73;;;4.87;;
51238;SDS011;38154;47.548;18.828;2022-12-29T04:55:12;7.82;;;4.20;;
51238;SDS011;38154;47.548;18.828;2022-12-29T04:57:38;8.02;;;4.07;;
51238;SDS011;38154;47.548;18.828;2022-12-29T05:00:04;3.60;;;2.67;;
51238;SDS011;38154;47.548;18.828;2022-12-29T05:02:31;6.10;;;3.35;;
51238;SDS011;38154;47.548;18.828;2022-12-29T05:04:57;6.07;;;4.35;;
51238;SDS011;38154;47.548;18.828;2022-12-29T05:07:22;5.90;;;4.03;;
51238;SDS011;38154;47.548;18.828;2022-12-29T05:09:48;10.55;;;5.85;;
51238;SDS011;38154;47.548;18.828;2022-12-29T05:12:14;14.45;;;7.10;;
51238;SDS011;38154;47.548;18.828;2022-12-29T05:14:40;13.48;;;5.43;;
51238;SDS011;38154;47.548;18.828;2022-12-29T05:17:06;9.00;;;5.15;;
51238;SDS011;38154;47.548;18.828;2022-12-29T05:19:32;9.00;;;4.45;;
51238;SDS011;38154;47.548;18.828;2022-12-29T05:21:58;7.70;;;3.87;;
51238;SDS011;38154;47.548;18.828;2022-12-29T05:24:24;7.30;;;3.80;;
51238;SDS011;38154;47.548;18.828;2022-12-29T05:26:50;7.53;;;5.18;;
51238;SDS011;38154;47.548;18.828;2022-12-29T05:29:15;8.25;;;4.37;;
51238;SDS011;38154;47.548;18.828;2022-12-29T05:31:41;11.68;;;4.65;;
51238;SDS011;38154;47.548;18.828;2022-12-29T05:34:09;12.00;;;5.53;;
51238;SDS011;38154;47.548;18.828;2022-12-29T05:36:36;13.55;;;4.62;;
51238;SDS011;38154;47.548;18.828;2022-12-29T05:39:02;9.25;;;4.10;;
51238;SDS011;38154;47.548;18.828;2022-12-29T05:41:28;15.77;;;6.85;;
51238;SDS011;38154;47.548;18.828;2022-12-29T05:43:54;12.65;;;4.68;;
51238;SDS011;38154;47.548;18.828;2022-12-29T05:46:20;10.60;;;5.80;;
51238;SDS011;38154;47.548;18.828;2022-12-29T05:48:46;11.88;;;5.15;;
51238;SDS011;38154;47.548;18.828;2022-12-29T05:51:12;6.07;;;4.35;;
51238;SDS011;38154;47.548;18.828;2022-12-29T05:53:38;9.20;;;5.22;;
51238;SDS011;38154;47.548;18.828;2022-12-29T05:56:04;9.13;;;4.45;;
51238;SDS011;38154;47.548;18.828;2022-12-29T05:58:30;8.25;;;3.97;;
51238;SDS011;38154;47.548;18.828;2022-12-29T06:00:56;6.90;;;3.92;;
51238;SDS011;38154;47.548;18.828;2022-12-29T06:03:21;11.23;;;3.95;;
51238;SDS011;38154;47.548;18.828;2022-12-29T06:05:47;8.43;;;4.55;;
51238;SDS011;38154;47.548;18.828;2022-12-29T06:08:13;8.52;;;3.60;;
51238;SDS011;38154;47.548;18.828;2022-12-29T06:10:39;11.57;;;4.62;;
51238;SDS011;38154;47.548;18.828;2022-12-29T06:13:05;10.48;;;5.07;;
51238;SDS011;38154;47.548;18.828;2022-12-29T06:15:31;8.45;;;4.35;;
51238;SDS011;38154;47.548;18.828;2022-12-29T06:17:58;8.52;;;5.57;;
51238;SDS011;38154;47.548;18.828;2022-12-29T06:20:23;16.85;;;7.32;;
51238;SDS011;38154;47.548;18.828;2022-12-29T06:22:49;17.30;;;8.85;;
51238;SDS011;38154;47.548;18.828;2022-12-29T06:25:15;16.05;;;7.93;;
51238;SDS011;38154;47.548;18.828;2022-12-29T06:27:42;15.87;;;6.70;;
51238;SDS011;38154;47.548;18.828;2022-12-29T06:30:08;13.10;;;7.18;;
51238;SDS011;38154;47.548;18.828;2022-12-29T06:32:35;9.82;;;5.25;;
51238;SDS011;38154;47.548;18.828;2022-12-29T06:35:02;16.25;;;7.87;;
51238;SDS011;38154;47.548;18.828;2022-12-29T06:37:28;19.65;;;8.52;;
51238;SDS011;38154;47.548;18.828;2022-12-29T06:39:54;27.67;;;11.05;;
51238;SDS011;38154;47.548;18.828;2022-12-29T06:42:20;41.65;;;14.05;;
51238;SDS011;38154;47.548;18.828;2022-12-29T06:44:46;28.52;;;13.45;;
51238;SDS011;38154;47.548;18.828;2022-12-29T06:47:12;30.27;;;10.52;;
51238;SDS011;38154;47.548;18.828;2022-12-29T06:49:38;33.22;;;12.68;;
51238;SDS011;38154;47.548;18.828;2022-12-29T06:52:04;39.10;;;14.90;;
51238;SDS011;38154;47.548;18.828;2022-12-29T06:54:30;38.10;;;12.15;;
51238;SDS011;38154;47.548;18.828;2022-12-29T06:56:56;12.10;;;5.70;;
51238;SDS011;38154;47.548;18.828;2022-12-29T06:59:23;9.13;;;6.30;;
51238;SDS011;38154;47.548;18.828;2022-12-29T07:01:50;8.60;;;4.95;;
51238;SDS011;38154;47.548;18.828;2022-12-29T07:04:16;14.85;;;5.43;;
51238;SDS011;38154;47.548;18.828;2022-12-29T07:06:42;13.10;;;6.40;;
51238;SDS011;38154;47.548;18.828;2022-12-29T07:09:08;14.75;;;7.30;;
51238;SDS011;38154;47.548;18.828;2022-12-29T07:11:34;28.42;;;10.38;;
51238;SDS011;38154;47.548;18.828;2022-12-29T07:14:01;23.33;;;10.60;;
51238;SDS011;38154;47.548;18.828;2022-12-29T07:16:27;23.77;;;9.57;;
51238;SDS011;38154;47.548;18.828;2022-12-29T07:18:54;19.90;;;9.80;;
51238;SDS011;38154;47.548;18.828;2022-12-29T07:21:21;17.95;;;8.55;;
51238;SDS011;38154;47.548;18.828;2022-12-29T07:23:46;13.45;;;5.90;;
51238;SDS011;38154;47.548;18.828;2022-12-29T07:26:13;15.40;;;7.20;;
51238;SDS011;38154;47.548;18.828;2022-12-29T07:28:43;9.98;;;4.57;;
51238;SDS011;38154;47.548;18.828;2022-12-29T07:31:13;9.80;;;5.15;;
51238;SDS011;38154;47.548;18.828;2022-12-29T07:33:44;13.18;;;4.32;;
51238;SDS011;38154;47.548;18.828;2022-12-29T07:36:11;12.27;;;4.53;;
51238;SDS011;38154;47.548;18.828;2022-12-29T07:38:37;13.32;;;4.28;;
51238;SDS011;38154;47.548;18.828;2022-12-29T07:41:04;8.23;;;4.90;;
51238;SDS011;38154;47.548;18.828;2022-12-29T07:43:30;11.47;;;4.80;;
51238;SDS011;38154;47.548;18.828;2022-12-29T07:45:55;12.00;;;4.62;;
51238;SDS011;38154;47.548;18.828;2022-12-29T07:48:21;18.42;;;8.88;;
51238;SDS011;38154;47.548;18.828;2022-12-29T07:50:47;15.88;;;8.63;;
51238;SDS011;38154;47.548;18.828;2022-12-29T07:53:13;17.07;;;8.40;;
51238;SDS011;38154;47.548;18.828;2022-12-29T07:55:40;18.80;;;10.18;;
51238;SDS011;38154;47.548;18.828;2022-12-29T07:58:06;24.27;;;10.13;;
51238;SDS011;38154;47.548;18.828;2022-12-29T08:00:32;26.55;;;10.88;;
51238;SDS011;38154;47.548;18.828;2022-12-29T08:02:58;17.52;;;10.95;;
51238;SDS011;38154;47.548;18.828;2022-12-29T08:05:24;26.70;;;10.45;;
51238;SDS011;38154;47.548;18.828;2022-12-29T08:07:50;21.37;;;10.63;;
51238;SDS011;38154;47.548;18.828;2022-12-29T08:10:16;15.40;;;8.10;;
51238;SDS011;38154;47.548;18.828;2022-12-29T08:12:42;23.67;;;9.63;;
51238;SDS011;38154;47.548;18.828;2022-12-29T08:15:09;17.85;;;8.70;;
51238;SDS011;38154;47.548;18.828;2022-12-29T08:17:36;22.48;;;9.02;;
51238;SDS011;38154;47.548;18.828;2022-12-29T08:20:03;26.45;;;11.27;;
51238;SDS011;38154;47.548;18.828;2022-12-29T08:22:30;18.02;;;8.25;;
51238;SDS011;38154;47.548;18.828;2022-12-29T08:24:56;17.05;;;8.43;;
51238;SDS011;38154;47.548;18.828;2022-12-29T08:27:22;14.90;;;8.80;;
51238;SDS011;38154;47.548;18.828;2022-12-29T08:29:47;20.33;;;8.65;;
51238;SDS011;38154;47.548;18.828;2022-12-29T08:32:13;17.75;;;9.02;;
51238;SDS011;38154;47.548;18.828;2022-12-29T08:34:39;16.87;;;6.80;;
51238;SDS011;38154;47.548;18.828;2022-12-29T08:37:05;12.27;;;6.25;;
51238;SDS011;38154;47.548;18.828;2022-12-29T08:39:31;14.10;;;5.70;;
51238;SDS011;38154;47.548;18.828;2022-12-29T08:41:57;12.53;;;6.30;;
51238;SDS011;38154;47.548;18.828;2022-12-29T08:44:23;13.50;;;6.23;;
51238;SDS011;38154;47.548;18.828;2022-12-29T08:46:49;11.07;;;5.33;;
51238;SDS011;38154;47.548;18.828;2022-12-29T08:49:15;11.77;;;5.73;;
51238;SDS011;38154;47.548;18.828;2022-12-29T08:51:41;8.90;;;4.83;;
51238;SDS011;38154;47.548;18.828;2022-12-29T08:54:06;10.40;;;4.90;;
51238;SDS011;38154;47.548;18.828;2022-12-29T08:56:32;10.20;;;5.10;;
51238;SDS011;38154;47.548;18.828;2022-12-29T08:58:58;9.17;;;4.53;;
51238;SDS011;38154;47.548;18.828;2022-12-29T09:01:24;7.97;;;5.33;;
51238;SDS011;38154;47.548;18.828;2022-12-29T09:03:50;9.47;;;4.40;;
51238;SDS011;38154;47.548;18.828;2022-12-29T09:06:16;11.43;;;5.23;;
51238;SDS011;38154;47.548;18.828;2022-12-29T09:08:43;9.73;;;5.40;;
51238;SDS011;38154;47.548;18.828;2022-12-29T09:11:11;8.30;;;5.03;;
51238;SDS011;38154;47.548;18.828;2022-12-29T09:13:39;10.05;;;5.28;;
51238;SDS011;38154;47.548;18.828;2022-12-29T09:16:05;8.00;;;4.47;;
51238;SDS011;38154;47.548;18.828;2022-12-29T09:18:31;7.10;;;4.20;;
51238;SDS011;38154;47.548;18.828;2022-12-29T09:20:58;12.05;;;4.95;;
51238;SDS011;38154;47.548;18.828;2022-12-29T09:23:28;9.48;;;4.65;;
51238;SDS011;38154;47.548;18.828;2022-12-29T09:25:54;9.70;;;5.10;;
51238;SDS011;38154;47.548;18.828;2022-12-29T09:28:20;9.38;;;4.70;;
51238;SDS011;38154;47.548;18.828;2022-12-29T09:30:47;9.45;;;5.37;;
51238;SDS011;38154;47.548;18.828;2022-12-29T09:33:13;9.43;;;4.93;;
51238;SDS011;38154;47.548;18.828;2022-12-29T09:35:49;8.48;;;4.90;;
51238;SDS011;38154;47.548;18.828;2022-12-29T09:38:17;10.52;;;5.05;;
51238;SDS011;38154;47.548;18.828;2022-12-29T09:40:44;8.82;;;4.62;;
51238;SDS011;38154;47.548;18.828;2022-12-29T09:43:24;8.38;;;4.37;;
51238;SDS011;38154;47.548;18.828;2022-12-29T09:48:40;10.35;;;4.18;;
51238;SDS011;38154;47.548;18.828;2022-12-29T09:51:14;10.10;;;4.53;;
51238;SDS011;38154;47.548;18.828;2022-12-29T09:54:14;9.45;;;4.70;;
51238;SDS011;38154;47.548;18.828;2022-12-29T09:56:39;6.62;;;4.22;;
51238;SDS011;38154;47.548;18.828;2022-12-29T09:59:12;9.27;;;4.40;;
51238;SDS011;38154;47.548;18.828;2022-12-29T10:01:51;7.35;;;3.85;;
51238;SDS011;38154;47.548;18.828;2022-12-29T10:04:25;6.68;;;3.85;;
51238;SDS011;38154;47.548;18.828;2022-12-29T10:06:54;9.82;;;5.37;;
51238;SDS011;38154;47.548;18.828;2022-12-29T10:23:45;8.30;;;4.78;;
51238;SDS011;38154;47.548;18.828;2022-12-29T10:26:18;10.50;;;4.72;;
51238;SDS011;38154;47.548;18.828;2022-12-29T10:31:23;10.52;;;5.28;;
51238;SDS011;38154;47.548;18.828;2022-12-29T10:33:57;9.85;;;5.18;;
51238;SDS011;38154;47.548;18.828;2022-12-29T10:36:35;8.48;;;3.95;;
51238;SDS011;38154;47.548;18.828;2022-12-29T10:44:34;10.70;;;4.90;;
51238;SDS011;38154;47.548;18.828;2022-12-29T10:47:02;7.30;;;5.10;;
51238;SDS011;38154;47.548;18.828;2022-12-29T10:49:32;10.13;;;4.95;;
51238;SDS011;38154;47.548;18.828;2022-12-29T10:52:04;15.50;;;6.05;;
51238;SDS011;38154;47.548;18.828;2022-12-29T10:57:11;11.52;;;6.12;;
51238;SDS011;38154;47.548;18.828;2022-12-29T10:59:48;9.32;;;6.00;;
51238;SDS011;38154;47.548;18.828;2022-12-29T11:02:24;11.77;;;6.53;;
51238;SDS011;38154;47.548;18.828;2022-12-29T11:05:11;12.40;;;6.53;;
51238;SDS011;38154;47.548;18.828;2022-12-29T11:07:56;12.90;;;5.78;;
51238;SDS011;38154;47.548;18.828;2022-12-29T11:10:31;12.70;;;6.15;;
51238;SDS011;38154;47.548;18.828;2022-12-29T11:13:01;12.68;;;7.62;;
51238;SDS011;38154;47.548;18.828;2022-12-29T11:15:46;17.80;;;7.93;;
51238;SDS011;38154;47.548;18.828;2022-12-29T11:18:17;14.13;;;6.72;;
51238;SDS011;38154;47.548;18.828;2022-12-29T11:20:43;15.52;;;6.72;;
51238;SDS011;38154;47.548;18.828;2022-12-29T11:31:42;10.90;;;6.87;;
51238;SDS011;38154;47.548;18.828;2022-12-29T11:34:53;13.23;;;5.90;;
51238;SDS011;38154;47.548;18.828;2022-12-29T11:37:06;11.43;;;6.47;;
51238;SDS011;38154;47.548;18.828;2022-12-29T11:42:14;12.70;;;5.68;;
51238;SDS011;38154;47.548;18.828;2022-12-29T11:44:43;15.27;;;5.85;;
51238;SDS011;38154;47.548;18.828;2022-12-29T11:47:19;11.70;;;5.70;;
51238;SDS011;38154;47.548;18.828;2022-12-29T11:50:01;9.85;;;5.82;;
51238;SDS011;38154;47.548;18.828;2022-12-29T11:52:31;12.02;;;5.50;;
51238;SDS011;38154;47.548;18.828;2022-12-29T11:55:01;11.20;;;5.20;;
51238;SDS011;38154;47.548;18.828;2022-12-29T11:57:30;12.55;;;6.72;;
51238;SDS011;38154;47.548;18.828;2022-12-29T12:00:00;11.57;;;4.95;;
51238;SDS011;38154;47.548;18.828;2022-12-29T12:08:07;11.32;;;6.30;;
51238;SDS011;38154;47.548;18.828;2022-12-29T12:13:34;11.20;;;6.03;;
51238;SDS011;38154;47.548;18.828;2022-12-29T12:16:08;13.38;;;6.05;;
51238;SDS011;38154;47.548;18.828;2022-12-29T12:21:15;9.70;;;5.53;;
51238;SDS011;38154;47.548;18.828;2022-12-29T12:26:28;12.00;;;5.97;;
51238;SDS011;38154;47.548;18.828;2022-12-29T12:34:12;9.85;;;4.75;;
51238;SDS011;38154;47.548;18.828;2022-12-29T12:36:49;8.48;;;4.75;;
51238;SDS011;38154;47.548;18.828;2022-12-29T12:39:27;6.80;;;4.65;;
51238;SDS011;38154;47.548;18.828;2022-12-29T12:45:32;12.55;;;5.50;;
51238;SDS011;38154;47.548;18.828;2022-12-29T12:53:28;16.27;;;5.95;;
51238;SDS011;38154;47.548;18.828;2022-12-29T13:07:45;13.48;;;7.07;;
51238;SDS011;38154;47.548;18.828;2022-12-29T13:10:44;11.70;;;7.03;;
51238;SDS011;38154;47.548;18.828;2022-12-29T13:16:08;14.68;;;7.60;;
51238;SDS011;38154;47.548;18.828;2022-12-29T13:26:43;10.73;;;6.10;;
51238;SDS011;38154;47.548;18.828;2022-12-29T13:29:32;17.55;;;8.50;;
51238;SDS011;38154;47.548;18.828;2022-12-29T13:34:47;16.62;;;8.48;;
51238;SDS011;38154;47.548;18.828;2022-12-29T13:37:26;15.88;;;7.45;;
51238;SDS011;38154;47.548;18.828;2022-12-29T13:39:56;14.80;;;7.18;;
51238;SDS011;38154;47.548;18.828;2022-12-29T13:42:27;18.17;;;7.68;;
51238;SDS011;38154;47.548;18.828;2022-12-29T13:45:02;21.67;;;8.02;;
51238;SDS011;38154;47.548;18.828;2022-12-29T13:50:25;16.50;;;7.05;;
51238;SDS011;38154;47.548;18.828;2022-12-29T13:53:10;14.25;;;7.53;;
51238;SDS011;38154;47.548;18.828;2022-12-29T13:56:03;9.45;;;5.43;;
51238;SDS011;38154;47.548;18.828;2022-12-29T14:01:43;12.25;;;7.25;;
51238;SDS011;38154;47.548;18.828;2022-12-29T14:04:22;16.37;;;8.02;;
51238;SDS011;38154;47.548;18.828;2022-12-29T14:07:03;16.08;;;7.43;;
51238;SDS011;38154;47.548;18.828;2022-12-29T14:09:44;17.67;;;8.13;;
51238;SDS011;38154;47.548;18.828;2022-12-29T14:12:36;12.70;;;6.97;;
51238;SDS011;38154;47.548;18.828;2022-12-29T14:15:13;13.68;;;7.80;;
51238;SDS011;38154;47.548;18.828;2022-12-29T14:17:45;15.38;;;7.60;;
51238;SDS011;38154;47.548;18.828;2022-12-29T14:20:27;14.85;;;7.80;;
51238;SDS011;38154;47.548;18.828;2022-12-29T14:28:26;17.45;;;7.25;;
51238;SDS011;38154;47.548;18.828;2022-12-29T14:31:00;20.77;;;8.25;;
51238;SDS011;38154;47.548;18.828;2022-12-29T14:33:29;16.40;;;9.30;;
51238;SDS011;38154;47.548;18.828;2022-12-29T14:35:57;15.50;;;7.72;;
51238;SDS011;38154;47.548;18.828;2022-12-29T14:38:51;15.65;;;7.43;;
51238;SDS011;38154;47.548;18.828;2022-12-29T14:41:24;19.20;;;8.55;;
51238;SDS011;38154;47.548;18.828;2022-12-29T14:43:56;22.40;;;8.95;;
51238;SDS011;38154;47.548;18.828;2022-12-29T14:46:25;11.20;;;6.40;;
51238;SDS011;38154;47.548;18.828;2022-12-29T14:49:24;15.27;;;8.35;;
51238;SDS011;38154;47.548;18.828;2022-12-29T14:52:13;24.90;;;10.52;;
51238;SDS011;38154;47.548;18.828;2022-12-29T14:54:45;15.68;;;8.40;;
51238;SDS011;38154;47.548;18.828;2022-12-29T14:57:19;19.02;;;8.98;;
51238;SDS011;38154;47.548;18.828;2022-12-29T14:59:46;16.15;;;8.13;;
51238;SDS011;38154;47.548;18.828;2022-12-29T15:02:17;18.42;;;9.70;;
51238;SDS011;38154;47.548;18.828;2022-12-29T15:04:47;19.58;;;7.37;;
51238;SDS011;38154;47.548;18.828;2022-12-29T15:07:13;18.63;;;7.80;;
51238;SDS011;38154;47.548;18.828;2022-12-29T15:09:44;13.80;;;6.60;;
51238;SDS011;38154;47.548;18.828;2022-12-29T15:12:21;19.33;;;6.78;;
51238;SDS011;38154;47.548;18.828;2022-12-29T15:15:01;20.30;;;7.45;;
51238;SDS011;38154;47.548;18.828;2022-12-29T15:19:54;15.93;;;8.33;;
51238;SDS011;38154;47.548;18.828;2022-12-29T15:24:47;18.25;;;8.40;;
51238;SDS011;38154;47.548;18.828;2022-12-29T15:27:24;19.37;;;9.68;;
51238;SDS011;38154;47.548;18.828;2022-12-29T15:29:56;14.93;;;8.63;;
51238;SDS011;38154;47.548;18.828;2022-12-29T15:32:25;24.65;;;12.00;;
51238;SDS011;38154;47.548;18.828;2022-12-29T15:34:53;16.37;;;8.18;;
51238;SDS011;38154;47.548;18.828;2022-12-29T15:37:22;24.05;;;10.15;;
51238;SDS011;38154;47.548;18.828;2022-12-29T15:39:51;28.25;;;11.60;;
51238;SDS011;38154;47.548;18.828;2022-12-29T15:42:23;19.23;;;8.30;;
51238;SDS011;38154;47.548;18.828;2022-12-29T15:44:52;31.25;;;8.73;;
51238;SDS011;38154;47.548;18.828;2022-12-29T15:47:19;17.97;;;9.50;;
51238;SDS011;38154;47.548;18.828;2022-12-29T15:49:48;19.75;;;9.65;;
51238;SDS011;38154;47.548;18.828;2022-12-29T15:52:20;23.62;;;9.35;;
51238;SDS011;38154;47.548;18.828;2022-12-29T15:54:50;16.35;;;9.65;;
51238;SDS011;38154;47.548;18.828;2022-12-29T15:57:22;27.98;;;11.20;;
51238;SDS011;38154;47.548;18.828;2022-12-29T15:59:49;37.33;;;11.82;;
51238;SDS011;38154;47.548;18.828;2022-12-29T16:02:16;28.95;;;11.40;;
51238;SDS011;38154;47.548;18.828;2022-12-29T16:04:42;24.77;;;11.93;;
51238;SDS011;38154;47.548;18.828;2022-12-29T16:07:21;25.35;;;10.80;;
51238;SDS011;38154;47.548;18.828;2022-12-29T16:09:56;25.75;;;12.13;;
51238;SDS011;38154;47.548;18.828;2022-12-29T16:12:24;18.35;;;10.88;;
51238;SDS011;38154;47.548;18.828;2022-12-29T16:15:03;22.52;;;10.48;;
51238;SDS011;38154;47.548;18.828;2022-12-29T16:17:31;23.00;;;11.48;;
51238;SDS011;38154;47.548;18.828;2022-12-29T16:20:17;30.33;;;11.43;;
51238;SDS011;38154;47.548;18.828;2022-12-29T16:22:48;35.92;;;14.07;;
51238;SDS011;38154;47.548;18.828;2022-12-29T16:25:22;32.33;;;12.02;;
51238;SDS011;38154;47.548;18.828;2022-12-29T16:27:53;39.03;;;14.40;;
51238;SDS011;38154;47.548;18.828;2022-12-29T16:30:21;28.83;;;13.40;;
51238;SDS011;38154;47.548;18.828;2022-12-29T16:32:47;29.37;;;13.38;;
51238;SDS011;38154;47.548;18.828;2022-12-29T16:35:22;26.65;;;14.15;;
51238;SDS011;38154;47.548;18.828;2022-12-29T16:40:56;29.90;;;13.70;;
51238;SDS011;38154;47.548;18.828;2022-12-29T16:43:27;28.10;;;12.30;;
51238;SDS011;38154;47.548;18.828;2022-12-29T16:48:27;32.22;;;14.77;;
51238;SDS011;38154;47.548;18.828;2022-12-29T16:51:03;31.83;;;15.68;;
51238;SDS011;38154;47.548;18.828;2022-12-29T16:53:32;30.70;;;15.20;;
51238;SDS011;38154;47.548;18.828;2022-12-29T16:56:03;33.90;;;13.80;;
51238;SDS011;38154;47.548;18.828;2022-12-29T16:58:34;36.15;;;15.40;;
51238;SDS011;38154;47.548;18.828;2022-12-29T17:01:02;32.85;;;13.93;;
51238;SDS011;38154;47.548;18.828;2022-12-29T17:03:35;21.25;;;12.77;;
51238;SDS011;38154;47.548;18.828;2022-12-29T17:06:05;25.95;;;12.95;;
51238;SDS011;38154;47.548;18.828;2022-12-29T17:08:39;25.75;;;12.30;;
51238;SDS011;38154;47.548;18.828;2022-12-29T17:11:08;28.58;;;12.43;;
51238;SDS011;38154;47.548;18.828;2022-12-29T17:16:54;26.37;;;11.55;;
51238;SDS011;38154;47.548;18.828;2022-12-29T17:19:28;25.85;;;11.65;;
51238;SDS011;38154;47.548;18.828;2022-12-29T17:21:56;28.77;;;11.25;;
51238;SDS011;38154;47.548;18.828;2022-12-29T17:24:23;28.90;;;13.43;;